Maine, New York
Current Conditions -  °F | °C
As of 6:53 PM on Wednesday 28 Jan 2015 (Local Time) from KBGM Reporting Station
Clear Clear  
Wind Chill:   Ceiling: Unl
Heat Index: 16°   Visibility: 10mi
Dew Point:   Wind: 7mph
Humidity: 62%   Direction: 320°NW
Pressure: 30.21"   Gusts: NA
Location:  42.19°N, 76.06°W
Report Text: KBGM 282353Z 32006KT 10SM CLR M09/M15 A3021 RMK AO2 SLP262 T10891150 11056 21089 53022
Loading
Personal Weather Stations






























Interactive Weather Map New forecast layout! Learn more

10-Day Weather Forecast

Advertisements
Track Severe Weather on mobile